sensor_id;sensor_type;location;lat;lon;timestamp;P1;durP1;ratioP1;P2;durP2;ratioP2
10529;SDS011;5313;48.834;9.228;2023-09-30T00:01:50;4.27;;;2.40;;
10529;SDS011;5313;48.834;9.228;2023-09-30T00:04:17;5.63;;;2.67;;
10529;SDS011;5313;48.834;9.228;2023-09-30T00:06:42;4.57;;;2.30;;
10529;SDS011;5313;48.834;9.228;2023-09-30T00:09:08;5.50;;;2.30;;
10529;SDS011;5313;48.834;9.228;2023-09-30T00:11:34;4.03;;;2.10;;
10529;SDS011;5313;48.834;9.228;2023-09-30T00:14:00;6.10;;;2.70;;
10529;SDS011;5313;48.834;9.228;2023-09-30T00:16:25;5.60;;;2.33;;
10529;SDS011;5313;48.834;9.228;2023-09-30T00:18:51;5.27;;;2.53;;
10529;SDS011;5313;48.834;9.228;2023-09-30T00:21:18;4.77;;;2.20;;
10529;SDS011;5313;48.834;9.228;2023-09-30T00:23:44;3.33;;;1.97;;
10529;SDS011;5313;48.834;9.228;2023-09-30T00:26:09;3.53;;;1.90;;
10529;SDS011;5313;48.834;9.228;2023-09-30T00:28:35;5.83;;;2.50;;
10529;SDS011;5313;48.834;9.228;2023-09-30T00:31:00;4.13;;;1.87;;
10529;SDS011;5313;48.834;9.228;2023-09-30T00:33:25;3.17;;;1.60;;
10529;SDS011;5313;48.834;9.228;2023-09-30T00:35:51;3.07;;;1.80;;
10529;SDS011;5313;48.834;9.228;2023-09-30T00:38:16;3.57;;;2.00;;
10529;SDS011;5313;48.834;9.228;2023-09-30T00:40:48;3.47;;;1.80;;
10529;SDS011;5313;48.834;9.228;2023-09-30T00:43:20;3.00;;;1.97;;
10529;SDS011;5313;48.834;9.228;2023-09-30T00:45:47;3.10;;;1.67;;
10529;SDS011;5313;48.834;9.228;2023-09-30T00:48:14;4.97;;;1.90;;
10529;SDS011;5313;48.834;9.228;2023-09-30T00:50:40;4.10;;;1.90;;
10529;SDS011;5313;48.834;9.228;2023-09-30T00:53:06;2.57;;;1.80;;
10529;SDS011;5313;48.834;9.228;2023-09-30T00:55:32;2.67;;;1.80;;
10529;SDS011;5313;48.834;9.228;2023-09-30T00:57:58;3.47;;;1.80;;
10529;SDS011;5313;48.834;9.228;2023-09-30T01:00:24;3.93;;;1.90;;
10529;SDS011;5313;48.834;9.228;2023-09-30T01:02:50;3.77;;;1.70;;
10529;SDS011;5313;48.834;9.228;2023-09-30T01:05:18;3.63;;;1.90;;
10529;SDS011;5313;48.834;9.228;2023-09-30T01:07:44;3.23;;;1.90;;
10529;SDS011;5313;48.834;9.228;2023-09-30T01:10:09;3.60;;;1.80;;
10529;SDS011;5313;48.834;9.228;2023-09-30T01:12:35;3.40;;;1.80;;
10529;SDS011;5313;48.834;9.228;2023-09-30T01:15:00;4.50;;;2.20;;
10529;SDS011;5313;48.834;9.228;2023-09-30T01:17:26;3.67;;;1.90;;
10529;SDS011;5313;48.834;9.228;2023-09-30T01:19:54;4.93;;;2.30;;
10529;SDS011;5313;48.834;9.228;2023-09-30T01:22:19;4.47;;;1.80;;
10529;SDS011;5313;48.834;9.228;2023-09-30T01:24:45;3.17;;;2.00;;
10529;SDS011;5313;48.834;9.228;2023-09-30T01:27:12;5.20;;;2.80;;
10529;SDS011;5313;48.834;9.228;2023-09-30T01:29:38;6.03;;;2.10;;
10529;SDS011;5313;48.834;9.228;2023-09-30T01:32:04;4.13;;;2.10;;
10529;SDS011;5313;48.834;9.228;2023-09-30T01:34:34;2.87;;;2.20;;
10529;SDS011;5313;48.834;9.228;2023-09-30T01:37:00;5.37;;;2.20;;
10529;SDS011;5313;48.834;9.228;2023-09-30T01:39:26;5.00;;;2.30;;
10529;SDS011;5313;48.834;9.228;2023-09-30T01:41:52;3.50;;;2.70;;
10529;SDS011;5313;48.834;9.228;2023-09-30T01:44:18;4.63;;;2.70;;
10529;SDS011;5313;48.834;9.228;2023-09-30T01:46:44;4.77;;;2.80;;
10529;SDS011;5313;48.834;9.228;2023-09-30T01:49:10;3.50;;;2.43;;
10529;SDS011;5313;48.834;9.228;2023-09-30T01:51:35;4.07;;;2.80;;
10529;SDS011;5313;48.834;9.228;2023-09-30T01:54:01;3.47;;;2.30;;
10529;SDS011;5313;48.834;9.228;2023-09-30T01:56:26;4.50;;;2.47;;
10529;SDS011;5313;48.834;9.228;2023-09-30T01:58:52;5.03;;;2.70;;
10529;SDS011;5313;48.834;9.228;2023-09-30T02:01:17;6.27;;;2.80;;
10529;SDS011;5313;48.834;9.228;2023-09-30T02:03:43;5.50;;;2.97;;
10529;SDS011;5313;48.834;9.228;2023-09-30T02:06:08;4.10;;;2.60;;
10529;SDS011;5313;48.834;9.228;2023-09-30T02:08:35;4.13;;;2.50;;
10529;SDS011;5313;48.834;9.228;2023-09-30T02:11:01;4.63;;;2.80;;
10529;SDS011;5313;48.834;9.228;2023-09-30T02:13:27;4.30;;;2.73;;
10529;SDS011;5313;48.834;9.228;2023-09-30T02:15:53;3.80;;;2.97;;
10529;SDS011;5313;48.834;9.228;2023-09-30T02:18:20;3.53;;;2.47;;
10529;SDS011;5313;48.834;9.228;2023-09-30T02:20:46;5.63;;;3.10;;
10529;SDS011;5313;48.834;9.228;2023-09-30T02:23:12;3.40;;;2.50;;
10529;SDS011;5313;48.834;9.228;2023-09-30T02:25:38;5.87;;;3.00;;
10529;SDS011;5313;48.834;9.228;2023-09-30T02:28:04;6.07;;;3.23;;
10529;SDS011;5313;48.834;9.228;2023-09-30T02:30:30;4.97;;;3.07;;
10529;SDS011;5313;48.834;9.228;2023-09-30T02:32:56;4.57;;;3.40;;
10529;SDS011;5313;48.834;9.228;2023-09-30T02:35:22;5.37;;;3.30;;
10529;SDS011;5313;48.834;9.228;2023-09-30T02:37:47;5.23;;;3.63;;
10529;SDS011;5313;48.834;9.228;2023-09-30T02:40:15;5.63;;;3.20;;
10529;SDS011;5313;48.834;9.228;2023-09-30T02:42:42;5.47;;;3.63;;
10529;SDS011;5313;48.834;9.228;2023-09-30T02:45:08;7.33;;;3.70;;
10529;SDS011;5313;48.834;9.228;2023-09-30T02:47:34;5.53;;;3.47;;
10529;SDS011;5313;48.834;9.228;2023-09-30T02:50:00;6.87;;;3.63;;
10529;SDS011;5313;48.834;9.228;2023-09-30T02:52:26;6.97;;;3.40;;
10529;SDS011;5313;48.834;9.228;2023-09-30T02:54:53;6.97;;;3.37;;
10529;SDS011;5313;48.834;9.228;2023-09-30T02:57:20;5.13;;;3.33;;
10529;SDS011;5313;48.834;9.228;2023-09-30T02:59:46;6.67;;;3.53;;
10529;SDS011;5313;48.834;9.228;2023-09-30T03:02:12;9.97;;;4.13;;
10529;SDS011;5313;48.834;9.228;2023-09-30T03:04:38;4.87;;;3.43;;
10529;SDS011;5313;48.834;9.228;2023-09-30T03:07:03;5.70;;;3.80;;
10529;SDS011;5313;48.834;9.228;2023-09-30T03:09:29;5.70;;;3.53;;
10529;SDS011;5313;48.834;9.228;2023-09-30T03:11:54;4.53;;;3.30;;
10529;SDS011;5313;48.834;9.228;2023-09-30T03:14:21;7.23;;;3.73;;
10529;SDS011;5313;48.834;9.228;2023-09-30T03:16:47;5.20;;;3.90;;
10529;SDS011;5313;48.834;9.228;2023-09-30T03:19:13;5.93;;;3.67;;
10529;SDS011;5313;48.834;9.228;2023-09-30T03:21:41;6.83;;;3.70;;
10529;SDS011;5313;48.834;9.228;2023-09-30T03:24:07;5.17;;;3.53;;
10529;SDS011;5313;48.834;9.228;2023-09-30T03:26:33;5.57;;;3.70;;
10529;SDS011;5313;48.834;9.228;2023-09-30T03:28:58;7.43;;;3.37;;
10529;SDS011;5313;48.834;9.228;2023-09-30T03:31:24;8.57;;;4.10;;
10529;SDS011;5313;48.834;9.228;2023-09-30T03:33:50;5.40;;;3.37;;
10529;SDS011;5313;48.834;9.228;2023-09-30T03:36:18;9.27;;;3.97;;
10529;SDS011;5313;48.834;9.228;2023-09-30T03:38:50;5.50;;;3.30;;
10529;SDS011;5313;48.834;9.228;2023-09-30T03:41:19;5.83;;;3.50;;
10529;SDS011;5313;48.834;9.228;2023-09-30T03:43:44;4.53;;;3.57;;
10529;SDS011;5313;48.834;9.228;2023-09-30T03:46:10;6.63;;;3.67;;
10529;SDS011;5313;48.834;9.228;2023-09-30T03:48:37;7.73;;;3.13;;
10529;SDS011;5313;48.834;9.228;2023-09-30T03:51:13;6.27;;;3.23;;
10529;SDS011;5313;48.834;9.228;2023-09-30T03:53:42;6.57;;;2.70;;
10529;SDS011;5313;48.834;9.228;2023-09-30T03:56:09;5.87;;;3.60;;
10529;SDS011;5313;48.834;9.228;2023-09-30T03:58:38;5.97;;;3.77;;
10529;SDS011;5313;48.834;9.228;2023-09-30T04:01:10;6.03;;;3.73;;
10529;SDS011;5313;48.834;9.228;2023-09-30T04:03:36;6.17;;;3.50;;
10529;SDS011;5313;48.834;9.228;2023-09-30T04:06:04;7.80;;;3.60;;
10529;SDS011;5313;48.834;9.228;2023-09-30T04:08:31;8.47;;;3.77;;
10529;SDS011;5313;48.834;9.228;2023-09-30T04:10:58;5.83;;;3.40;;
10529;SDS011;5313;48.834;9.228;2023-09-30T04:13:24;6.60;;;3.50;;
10529;SDS011;5313;48.834;9.228;2023-09-30T04:15:50;4.73;;;3.20;;
10529;SDS011;5313;48.834;9.228;2023-09-30T04:18:16;6.43;;;3.53;;
10529;SDS011;5313;48.834;9.228;2023-09-30T04:20:41;4.50;;;2.77;;
10529;SDS011;5313;48.834;9.228;2023-09-30T04:23:07;6.43;;;3.67;;
10529;SDS011;5313;48.834;9.228;2023-09-30T04:25:35;6.53;;;3.90;;
10529;SDS011;5313;48.834;9.228;2023-09-30T04:28:00;6.00;;;3.60;;
10529;SDS011;5313;48.834;9.228;2023-09-30T04:30:27;5.43;;;3.40;;
10529;SDS011;5313;48.834;9.228;2023-09-30T04:32:54;5.80;;;3.83;;
10529;SDS011;5313;48.834;9.228;2023-09-30T04:35:19;6.37;;;3.63;;
10529;SDS011;5313;48.834;9.228;2023-09-30T04:37:45;5.77;;;3.27;;
10529;SDS011;5313;48.834;9.228;2023-09-30T04:40:11;6.07;;;3.43;;
10529;SDS011;5313;48.834;9.228;2023-09-30T04:42:46;5.43;;;3.20;;
10529;SDS011;5313;48.834;9.228;2023-09-30T04:45:13;6.07;;;3.77;;
10529;SDS011;5313;48.834;9.228;2023-09-30T04:47:41;4.00;;;3.30;;
10529;SDS011;5313;48.834;9.228;2023-09-30T04:50:09;6.10;;;3.40;;
10529;SDS011;5313;48.834;9.228;2023-09-30T04:52:36;5.90;;;3.63;;
10529;SDS011;5313;48.834;9.228;2023-09-30T04:55:02;7.70;;;3.70;;
10529;SDS011;5313;48.834;9.228;2023-09-30T04:57:29;6.10;;;3.60;;
10529;SDS011;5313;48.834;9.228;2023-09-30T04:59:55;7.47;;;3.63;;
10529;SDS011;5313;48.834;9.228;2023-09-30T05:02:21;5.53;;;3.63;;
10529;SDS011;5313;48.834;9.228;2023-09-30T05:04:47;5.57;;;3.47;;
10529;SDS011;5313;48.834;9.228;2023-09-30T05:07:13;6.10;;;3.60;;
10529;SDS011;5313;48.834;9.228;2023-09-30T05:09:39;7.50;;;3.33;;
10529;SDS011;5313;48.834;9.228;2023-09-30T05:12:04;7.40;;;3.30;;
10529;SDS011;5313;48.834;9.228;2023-09-30T05:14:31;9.10;;;3.60;;
10529;SDS011;5313;48.834;9.228;2023-09-30T05:16:56;6.73;;;3.70;;
10529;SDS011;5313;48.834;9.228;2023-09-30T05:19:22;6.77;;;4.00;;
10529;SDS011;5313;48.834;9.228;2023-09-30T05:21:47;9.00;;;4.00;;
10529;SDS011;5313;48.834;9.228;2023-09-30T05:24:14;8.10;;;3.60;;
10529;SDS011;5313;48.834;9.228;2023-09-30T05:26:39;5.87;;;3.70;;
10529;SDS011;5313;48.834;9.228;2023-09-30T05:29:05;7.20;;;3.10;;
10529;SDS011;5313;48.834;9.228;2023-09-30T05:31:30;8.33;;;4.03;;
10529;SDS011;5313;48.834;9.228;2023-09-30T05:33:57;5.77;;;3.93;;
10529;SDS011;5313;48.834;9.228;2023-09-30T05:36:22;6.37;;;3.77;;
10529;SDS011;5313;48.834;9.228;2023-09-30T05:38:48;6.60;;;3.80;;
10529;SDS011;5313;48.834;9.228;2023-09-30T05:41:16;7.37;;;4.20;;
10529;SDS011;5313;48.834;9.228;2023-09-30T05:43:42;7.33;;;3.73;;
10529;SDS011;5313;48.834;9.228;2023-09-30T05:46:08;9.07;;;4.27;;
10529;SDS011;5313;48.834;9.228;2023-09-30T05:48:34;10.10;;;4.53;;
10529;SDS011;5313;48.834;9.228;2023-09-30T05:51:00;6.30;;;3.90;;
10529;SDS011;5313;48.834;9.228;2023-09-30T05:53:25;10.00;;;4.13;;
10529;SDS011;5313;48.834;9.228;2023-09-30T05:55:52;10.17;;;3.60;;
10529;SDS011;5313;48.834;9.228;2023-09-30T05:58:18;7.47;;;3.03;;
10529;SDS011;5313;48.834;9.228;2023-09-30T06:00:44;10.87;;;3.50;;
10529;SDS011;5313;48.834;9.228;2023-09-30T06:03:10;4.90;;;2.90;;
10529;SDS011;5313;48.834;9.228;2023-09-30T06:05:38;5.10;;;3.30;;
10529;SDS011;5313;48.834;9.228;2023-09-30T06:08:05;4.10;;;3.47;;
10529;SDS011;5313;48.834;9.228;2023-09-30T06:10:35;9.30;;;3.70;;
10529;SDS011;5313;48.834;9.228;2023-09-30T06:13:02;6.27;;;4.30;;
10529;SDS011;5313;48.834;9.228;2023-09-30T06:15:29;6.33;;;3.50;;
10529;SDS011;5313;48.834;9.228;2023-09-30T06:17:55;8.00;;;3.97;;
10529;SDS011;5313;48.834;9.228;2023-09-30T06:20:21;6.93;;;3.70;;
10529;SDS011;5313;48.834;9.228;2023-09-30T06:22:55;6.13;;;4.23;;
10529;SDS011;5313;48.834;9.228;2023-09-30T06:25:21;9.33;;;4.17;;
10529;SDS011;5313;48.834;9.228;2023-09-30T06:27:49;7.00;;;3.77;;
10529;SDS011;5313;48.834;9.228;2023-09-30T06:30:15;6.87;;;4.03;;
10529;SDS011;5313;48.834;9.228;2023-09-30T06:32:42;6.50;;;4.30;;
10529;SDS011;5313;48.834;9.228;2023-09-30T06:35:08;7.30;;;4.20;;
10529;SDS011;5313;48.834;9.228;2023-09-30T06:37:37;7.37;;;4.60;;
10529;SDS011;5313;48.834;9.228;2023-09-30T06:40:07;7.63;;;4.50;;
10529;SDS011;5313;48.834;9.228;2023-09-30T06:42:34;8.80;;;6.30;;
10529;SDS011;5313;48.834;9.228;2023-09-30T06:45:01;7.23;;;4.97;;
10529;SDS011;5313;48.834;9.228;2023-09-30T06:47:31;7.47;;;4.70;;
10529;SDS011;5313;48.834;9.228;2023-09-30T06:49:58;6.97;;;4.60;;
10529;SDS011;5313;48.834;9.228;2023-09-30T06:52:36;7.47;;;4.77;;
10529;SDS011;5313;48.834;9.228;2023-09-30T06:55:06;6.23;;;4.07;;
10529;SDS011;5313;48.834;9.228;2023-09-30T06:57:33;7.73;;;4.30;;
10529;SDS011;5313;48.834;9.228;2023-09-30T07:00:00;7.53;;;4.07;;
10529;SDS011;5313;48.834;9.228;2023-09-30T07:02:26;6.20;;;4.10;;
10529;SDS011;5313;48.834;9.228;2023-09-30T07:04:53;6.43;;;4.70;;
10529;SDS011;5313;48.834;9.228;2023-09-30T07:07:18;7.47;;;4.83;;
10529;SDS011;5313;48.834;9.228;2023-09-30T07:09:44;7.53;;;4.80;;
10529;SDS011;5313;48.834;9.228;2023-09-30T07:12:09;6.97;;;4.03;;
10529;SDS011;5313;48.834;9.228;2023-09-30T07:14:35;7.23;;;4.20;;
10529;SDS011;5313;48.834;9.228;2023-09-30T07:17:00;9.83;;;4.47;;
10529;SDS011;5313;48.834;9.228;2023-09-30T07:19:26;8.70;;;4.93;;
10529;SDS011;5313;48.834;9.228;2023-09-30T07:21:51;10.03;;;4.63;;
10529;SDS011;5313;48.834;9.228;2023-09-30T07:24:17;9.93;;;4.63;;
10529;SDS011;5313;48.834;9.228;2023-09-30T07:26:42;9.63;;;5.00;;
10529;SDS011;5313;48.834;9.228;2023-09-30T07:29:08;6.77;;;4.43;;
10529;SDS011;5313;48.834;9.228;2023-09-30T07:31:35;8.23;;;4.47;;
10529;SDS011;5313;48.834;9.228;2023-09-30T07:34:00;8.40;;;4.57;;
10529;SDS011;5313;48.834;9.228;2023-09-30T07:36:26;10.23;;;4.97;;
10529;SDS011;5313;48.834;9.228;2023-09-30T07:38:52;11.07;;;5.20;;
10529;SDS011;5313;48.834;9.228;2023-09-30T07:41:18;8.43;;;4.83;;
10529;SDS011;5313;48.834;9.228;2023-09-30T07:43:43;11.53;;;5.80;;
10529;SDS011;5313;48.834;9.228;2023-09-30T07:46:09;7.13;;;4.63;;
10529;SDS011;5313;48.834;9.228;2023-09-30T07:48:34;8.13;;;4.80;;
10529;SDS011;5313;48.834;9.228;2023-09-30T07:51:00;11.40;;;5.00;;
10529;SDS011;5313;48.834;9.228;2023-09-30T07:53:26;7.57;;;4.67;;
10529;SDS011;5313;48.834;9.228;2023-09-30T07:55:52;9.27;;;4.70;;
10529;SDS011;5313;48.834;9.228;2023-09-30T07:58:19;9.10;;;4.73;;
10529;SDS011;5313;48.834;9.228;2023-09-30T08:00:45;10.30;;;4.90;;
10529;SDS011;5313;48.834;9.228;2023-09-30T08:03:10;10.47;;;4.73;;
10529;SDS011;5313;48.834;9.228;2023-09-30T08:05:36;9.43;;;4.60;;
10529;SDS011;5313;48.834;9.228;2023-09-30T08:08:02;10.13;;;4.73;;
10529;SDS011;5313;48.834;9.228;2023-09-30T08:10:28;8.27;;;4.30;;
10529;SDS011;5313;48.834;9.228;2023-09-30T08:12:56;10.80;;;4.70;;
10529;SDS011;5313;48.834;9.228;2023-09-30T08:15:23;8.50;;;4.30;;
10529;SDS011;5313;48.834;9.228;2023-09-30T08:17:49;9.27;;;4.40;;
10529;SDS011;5313;48.834;9.228;2023-09-30T08:20:15;6.27;;;4.27;;
10529;SDS011;5313;48.834;9.228;2023-09-30T08:22:40;8.67;;;4.70;;
10529;SDS011;5313;48.834;9.228;2023-09-30T08:25:06;7.33;;;3.90;;
10529;SDS011;5313;48.834;9.228;2023-09-30T08:27:32;8.67;;;4.50;;
10529;SDS011;5313;48.834;9.228;2023-09-30T08:29:58;5.87;;;3.47;;
10529;SDS011;5313;48.834;9.228;2023-09-30T08:32:23;7.77;;;4.13;;
10529;SDS011;5313;48.834;9.228;2023-09-30T08:34:49;9.90;;;5.03;;
10529;SDS011;5313;48.834;9.228;2023-09-30T08:37:14;6.80;;;3.93;;
10529;SDS011;5313;48.834;9.228;2023-09-30T08:39:40;10.90;;;4.63;;
10529;SDS011;5313;48.834;9.228;2023-09-30T08:42:09;8.50;;;3.70;;
10529;SDS011;5313;48.834;9.228;2023-09-30T08:44:39;7.80;;;3.47;;
10529;SDS011;5313;48.834;9.228;2023-09-30T08:47:05;7.47;;;3.00;;
10529;SDS011;5313;48.834;9.228;2023-09-30T08:49:37;8.87;;;3.90;;
10529;SDS011;5313;48.834;9.228;2023-09-30T08:52:06;8.03;;;3.83;;
10529;SDS011;5313;48.834;9.228;2023-09-30T08:54:34;6.50;;;3.20;;
10529;SDS011;5313;48.834;9.228;2023-09-30T08:57:00;5.73;;;3.00;;
10529;SDS011;5313;48.834;9.228;2023-09-30T08:59:29;8.13;;;3.37;;
10529;SDS011;5313;48.834;9.228;2023-09-30T09:01:56;6.67;;;3.60;;
10529;SDS011;5313;48.834;9.228;2023-09-30T09:04:23;6.63;;;3.33;;
10529;SDS011;5313;48.834;9.228;2023-09-30T09:06:49;5.43;;;3.03;;
10529;SDS011;5313;48.834;9.228;2023-09-30T09:09:15;9.93;;;3.63;;
10529;SDS011;5313;48.834;9.228;2023-09-30T09:11:42;7.93;;;3.90;;
10529;SDS011;5313;48.834;9.228;2023-09-30T09:14:08;8.03;;;3.67;;
10529;SDS011;5313;48.834;9.228;2023-09-30T09:16:34;6.47;;;3.70;;
10529;SDS011;5313;48.834;9.228;2023-09-30T09:19:12;6.30;;;3.40;;
10529;SDS011;5313;48.834;9.228;2023-09-30T09:21:45;9.20;;;3.23;;
10529;SDS011;5313;48.834;9.228;2023-09-30T09:24:27;9.10;;;3.77;;
10529;SDS011;5313;48.834;9.228;2023-09-30T09:27:17;5.67;;;3.00;;
10529;SDS011;5313;48.834;9.228;2023-09-30T09:29:42;5.20;;;3.57;;
10529;SDS011;5313;48.834;9.228;2023-09-30T09:32:10;9.33;;;3.73;;
10529;SDS011;5313;48.834;9.228;2023-09-30T09:34:40;7.40;;;3.97;;
10529;SDS011;5313;48.834;9.228;2023-09-30T09:37:16;6.37;;;3.97;;
10529;SDS011;5313;48.834;9.228;2023-09-30T09:39:52;8.53;;;3.53;;
10529;SDS011;5313;48.834;9.228;2023-09-30T09:42:31;5.37;;;3.30;;
10529;SDS011;5313;48.834;9.228;2023-09-30T09:44:59;7.90;;;4.63;;
10529;SDS011;5313;48.834;9.228;2023-09-30T09:47:25;6.73;;;4.00;;
10529;SDS011;5313;48.834;9.228;2023-09-30T09:49:52;7.57;;;4.20;;
10529;SDS011;5313;48.834;9.228;2023-09-30T09:52:18;6.27;;;3.90;;
10529;SDS011;5313;48.834;9.228;2023-09-30T09:54:45;7.13;;;3.57;;
10529;SDS011;5313;48.834;9.228;2023-09-30T09:57:13;6.27;;;3.50;;
10529;SDS011;5313;48.834;9.228;2023-09-30T09:59:41;8.37;;;3.57;;
10529;SDS011;5313;48.834;9.228;2023-09-30T10:02:11;6.13;;;3.87;;
10529;SDS011;5313;48.834;9.228;2023-09-30T10:04:39;9.27;;;3.40;;
10529;SDS011;5313;48.834;9.228;2023-09-30T10:07:16;8.60;;;3.77;;
10529;SDS011;5313;48.834;9.228;2023-09-30T10:09:47;7.30;;;3.73;;
10529;SDS011;5313;48.834;9.228;2023-09-30T10:12:15;6.43;;;3.60;;
10529;SDS011;5313;48.834;9.228;2023-09-30T10:14:43;7.67;;;3.50;;
10529;SDS011;5313;48.834;9.228;2023-09-30T10:17:09;5.90;;;3.80;;
10529;SDS011;5313;48.834;9.228;2023-09-30T10:19:35;7.00;;;3.30;;
10529;SDS011;5313;48.834;9.228;2023-09-30T10:24:41;6.80;;;3.60;;
10529;SDS011;5313;48.834;9.228;2023-09-30T10:35:15;9.07;;;3.60;;
10529;SDS011;5313;48.834;9.228;2023-09-30T10:40:46;5.53;;;3.17;;
10529;SDS011;5313;48.834;9.228;2023-09-30T10:43:28;6.80;;;3.50;;
10529;SDS011;5313;48.834;9.228;2023-09-30T10:45:57;7.53;;;3.30;;
10529;SDS011;5313;48.834;9.228;2023-09-30T10:51:13;6.63;;;3.47;;
10529;SDS011;5313;48.834;9.228;2023-09-30T10:53:41;8.30;;;3.70;;
10529;SDS011;5313;48.834;9.228;2023-09-30T10:56:08;9.20;;;4.17;;
10529;SDS011;5313;48.834;9.228;2023-09-30T10:58:43;6.43;;;3.70;;
10529;SDS011;5313;48.834;9.228;2023-09-30T11:01:10;7.17;;;3.70;;
10529;SDS011;5313;48.834;9.228;2023-09-30T11:03:38;5.03;;;3.40;;
10529;SDS011;5313;48.834;9.228;2023-09-30T11:06:05;8.27;;;3.57;;
10529;SDS011;5313;48.834;9.228;2023-09-30T11:08:31;6.27;;;3.60;;
10529;SDS011;5313;48.834;9.228;2023-09-30T11:10:58;5.77;;;3.53;;
10529;SDS011;5313;48.834;9.228;2023-09-30T11:13:25;6.53;;;4.07;;
10529;SDS011;5313;48.834;9.228;2023-09-30T11:16:01;7.83;;;3.67;;
10529;SDS011;5313;48.834;9.228;2023-09-30T11:18:29;5.53;;;3.73;;
10529;SDS011;5313;48.834;9.228;2023-09-30T11:21:03;6.47;;;3.67;;
10529;SDS011;5313;48.834;9.228;2023-09-30T11:23:30;7.70;;;3.90;;
10529;SDS011;5313;48.834;9.228;2023-09-30T11:25:56;9.37;;;4.30;;
10529;SDS011;5313;48.834;9.228;2023-09-30T11:28:21;8.47;;;3.97;;
10529;SDS011;5313;48.834;9.228;2023-09-30T11:33:19;10.03;;;4.07;;
10529;SDS011;5313;48.834;9.228;2023-09-30T11:36:03;6.97;;;3.43;;
10529;SDS011;5313;48.834;9.228;2023-09-30T11:38:30;8.23;;;3.90;;
10529;SDS011;5313;48.834;9.228;2023-09-30T11:41:00;7.03;;;3.90;;
10529;SDS011;5313;48.834;9.228;2023-09-30T11:43:33;6.43;;;3.87;;
10529;SDS011;5313;48.834;9.228;2023-09-30T11:46:09;7.23;;;3.13;;
10529;SDS011;5313;48.834;9.228;2023-09-30T11:48:36;8.23;;;4.10;;
10529;SDS011;5313;48.834;9.228;2023-09-30T11:51:03;6.87;;;4.10;;
10529;SDS011;5313;48.834;9.228;2023-09-30T11:53:34;7.07;;;3.77;;
10529;SDS011;5313;48.834;9.228;2023-09-30T11:56:00;7.57;;;4.13;;
10529;SDS011;5313;48.834;9.228;2023-09-30T11:58:28;7.53;;;3.60;;
10529;SDS011;5313;48.834;9.228;2023-09-30T12:00:54;8.23;;;4.10;;
10529;SDS011;5313;48.834;9.228;2023-09-30T12:03:22;8.53;;;4.17;;
10529;SDS011;5313;48.834;9.228;2023-09-30T12:05:48;8.00;;;4.00;;
10529;SDS011;5313;48.834;9.228;2023-09-30T12:08:14;8.03;;;4.43;;
10529;SDS011;5313;48.834;9.228;2023-09-30T12:10:40;6.97;;;4.10;;
10529;SDS011;5313;48.834;9.228;2023-09-30T12:13:05;10.00;;;4.27;;
10529;SDS011;5313;48.834;9.228;2023-09-30T12:15:31;7.03;;;3.50;;
10529;SDS011;5313;48.834;9.228;2023-09-30T12:17:56;8.10;;;3.77;;
10529;SDS011;5313;48.834;9.228;2023-09-30T12:20:22;8.77;;;4.20;;
10529;SDS011;5313;48.834;9.228;2023-09-30T12:22:48;8.40;;;4.13;;
10529;SDS011;5313;48.834;9.228;2023-09-30T12:25:13;7.33;;;4.03;;
10529;SDS011;5313;48.834;9.228;2023-09-30T12:27:39;9.83;;;4.33;;
10529;SDS011;5313;48.834;9.228;2023-09-30T12:30:05;8.47;;;4.20;;
10529;SDS011;5313;48.834;9.228;2023-09-30T12:32:32;9.30;;;4.87;;
10529;SDS011;5313;48.834;9.228;2023-09-30T12:34:57;7.60;;;3.93;;
10529;SDS011;5313;48.834;9.228;2023-09-30T12:37:23;8.13;;;3.70;;
10529;SDS011;5313;48.834;9.228;2023-09-30T12:39:48;7.83;;;4.10;;
10529;SDS011;5313;48.834;9.228;2023-09-30T12:42:14;10.87;;;4.23;;
10529;SDS011;5313;48.834;9.228;2023-09-30T12:44:40;10.13;;;4.10;;
10529;SDS011;5313;48.834;9.228;2023-09-30T12:47:06;9.43;;;4.53;;
10529;SDS011;5313;48.834;9.228;2023-09-30T12:49:32;8.53;;;4.43;;
10529;SDS011;5313;48.834;9.228;2023-09-30T12:51:57;8.07;;;4.30;;
10529;SDS011;5313;48.834;9.228;2023-09-30T12:54:24;6.53;;;4.17;;
10529;SDS011;5313;48.834;9.228;2023-09-30T12:56:50;7.30;;;4.10;;
10529;SDS011;5313;48.834;9.228;2023-09-30T12:59:16;8.03;;;3.90;;
10529;SDS011;5313;48.834;9.228;2023-09-30T13:01:49;10.43;;;4.03;;
10529;SDS011;5313;48.834;9.228;2023-09-30T13:04:14;8.87;;;3.70;;
10529;SDS011;5313;48.834;9.228;2023-09-30T13:06:40;10.00;;;4.30;;
10529;SDS011;5313;48.834;9.228;2023-09-30T13:09:06;9.23;;;4.03;;
10529;SDS011;5313;48.834;9.228;2023-09-30T13:11:33;8.97;;;4.27;;
10529;SDS011;5313;48.834;9.228;2023-09-30T13:13:59;8.80;;;4.10;;
10529;SDS011;5313;48.834;9.228;2023-09-30T13:16:24;9.23;;;4.57;;
10529;SDS011;5313;48.834;9.228;2023-09-30T13:18:50;8.37;;;5.00;;
10529;SDS011;5313;48.834;9.228;2023-09-30T13:21:17;9.97;;;5.03;;
10529;SDS011;5313;48.834;9.228;2023-09-30T13:23:43;7.80;;;4.63;;
10529;SDS011;5313;48.834;9.228;2023-09-30T13:26:08;7.90;;;4.43;;
10529;SDS011;5313;48.834;9.228;2023-09-30T13:28:34;8.67;;;4.93;;
10529;SDS011;5313;48.834;9.228;2023-09-30T13:30:59;6.97;;;4.30;;
10529;SDS011;5313;48.834;9.228;2023-09-30T13:33:25;8.30;;;4.63;;
10529;SDS011;5313;48.834;9.228;2023-09-30T13:35:51;8.87;;;4.40;;
10529;SDS011;5313;48.834;9.228;2023-09-30T13:38:16;7.70;;;4.37;;
10529;SDS011;5313;48.834;9.228;2023-09-30T13:40:42;6.33;;;3.97;;
10529;SDS011;5313;48.834;9.228;2023-09-30T13:43:09;7.17;;;3.73;;
10529;SDS011;5313;48.834;9.228;2023-09-30T13:45:34;8.67;;;4.13;;
10529;SDS011;5313;48.834;9.228;2023-09-30T13:48:00;6.63;;;4.07;;
10529;SDS011;5313;48.834;9.228;2023-09-30T13:50:25;7.03;;;3.93;;
10529;SDS011;5313;48.834;9.228;2023-09-30T13:52:51;6.97;;;3.50;;
10529;SDS011;5313;48.834;9.228;2023-09-30T13:55:16;6.43;;;3.83;;
10529;SDS011;5313;48.834;9.228;2023-09-30T13:57:47;6.60;;;3.93;;
10529;SDS011;5313;48.834;9.228;2023-09-30T14:00:13;7.33;;;3.87;;
10529;SDS011;5313;48.834;9.228;2023-09-30T14:02:41;8.93;;;4.20;;
10529;SDS011;5313;48.834;9.228;2023-09-30T14:05:07;10.83;;;4.77;;
10529;SDS011;5313;48.834;9.228;2023-09-30T14:07:34;8.40;;;4.23;;
10529;SDS011;5313;48.834;9.228;2023-09-30T14:10:00;6.40;;;3.77;;
10529;SDS011;5313;48.834;9.228;2023-09-30T14:12:26;7.83;;;4.17;;
10529;SDS011;5313;48.834;9.228;2023-09-30T14:14:52;8.90;;;4.67;;
10529;SDS011;5313;48.834;9.228;2023-09-30T14:17:18;7.60;;;4.30;;
10529;SDS011;5313;48.834;9.228;2023-09-30T14:19:43;7.40;;;4.00;;
10529;SDS011;5313;48.834;9.228;2023-09-30T14:22:09;6.70;;;4.33;;
10529;SDS011;5313;48.834;9.228;2023-09-30T14:24:35;7.40;;;3.97;;
10529;SDS011;5313;48.834;9.228;2023-09-30T14:27:03;7.77;;;3.90;;
10529;SDS011;5313;48.834;9.228;2023-09-30T14:29:30;11.33;;;4.03;;
10529;SDS011;5313;48.834;9.228;2023-09-30T14:31:56;7.97;;;4.10;;
10529;SDS011;5313;48.834;9.228;2023-09-30T14:34:22;6.23;;;3.63;;
10529;SDS011;5313;48.834;9.228;2023-09-30T14:36:48;7.33;;;4.00;;
10529;SDS011;5313;48.834;9.228;2023-09-30T14:39:15;9.77;;;3.90;;
10529;SDS011;5313;48.834;9.228;2023-09-30T14:41:41;9.57;;;4.07;;
10529;SDS011;5313;48.834;9.228;2023-09-30T14:44:07;8.37;;;4.10;;
10529;SDS011;5313;48.834;9.228;2023-09-30T14:46:33;8.17;;;3.97;;
10529;SDS011;5313;48.834;9.228;2023-09-30T14:49:00;7.30;;;4.20;;
10529;SDS011;5313;48.834;9.228;2023-09-30T14:51:25;7.03;;;4.50;;
10529;SDS011;5313;48.834;9.228;2023-09-30T14:53:51;9.23;;;4.30;;
10529;SDS011;5313;48.834;9.228;2023-09-30T14:56:18;8.40;;;3.97;;
10529;SDS011;5313;48.834;9.228;2023-09-30T14:58:43;11.33;;;4.47;;
10529;SDS011;5313;48.834;9.228;2023-09-30T15:01:09;7.87;;;3.97;;
10529;SDS011;5313;48.834;9.228;2023-09-30T15:03:35;8.73;;;3.87;;
10529;SDS011;5313;48.834;9.228;2023-09-30T15:06:03;6.43;;;3.63;;
10529;SDS011;5313;48.834;9.228;2023-09-30T15:08:30;6.07;;;3.57;;
10529;SDS011;5313;48.834;9.228;2023-09-30T15:10:57;7.37;;;4.27;;
10529;SDS011;5313;48.834;9.228;2023-09-30T15:13:24;7.43;;;3.80;;
10529;SDS011;5313;48.834;9.228;2023-09-30T15:15:49;6.73;;;3.60;;
10529;SDS011;5313;48.834;9.228;2023-09-30T15:18:15;7.73;;;3.80;;